Time;durP1;ratioP1;P1;durP2;ratioP2;P2;SDS_P1;SDS_P2;PMS_P1;PMS_P2;Temp;Humidity;BMP_temperature;BMP_pressure;BME280_temperature;BME280_humidity;BME280_pressure;Samples;Min_cycle;Max_cycle;Signal;HPM_P1;HPM_P2
2023/03/18 00:00:50;;;;;;;12.38;7.60;;;9.10;71.80;;;;;;4979347;28;20038;-61
2023/03/18 00:03:16;;;;;;;11.88;8.23;;;9.10;71.90;;;;;;4978779;28;20193;-60
2023/03/18 00:05:42;;;;;;;13.75;8.90;;;9.10;72.00;;;;;;4977870;28;20092;-62
2023/03/18 00:08:08;;;;;;;12.45;8.07;;;9.10;72.00;;;;;;4977854;28;20050;-61
2023/03/18 00:10:34;;;;;;;12.00;8.20;;;9.10;72.00;;;;;;4978826;28;20413;-61
2023/03/18 00:13:00;;;;;;;13.05;8.30;;;9.00;72.00;;;;;;4978573;28;20031;-60
2023/03/18 00:15:27;;;;;;;14.75;9.02;;;9.00;72.20;;;;;;4977805;28;20034;-61
2023/03/18 00:17:53;;;;;;;13.45;8.45;;;9.00;72.50;;;;;;4976833;28;20033;-63
2023/03/18 00:20:27;;;;;;;14.10;8.05;;;9.00;72.60;;;;;;4980338;28;20039;-61
2023/03/18 00:22:54;;;;;;;14.13;7.50;;;8.90;72.60;;;;;;4979119;28;20034;-62
2023/03/18 00:25:20;;;;;;;11.32;7.25;;;8.90;72.60;;;;;;4978135;28;20498;-61
2023/03/18 00:27:46;;;;;;;11.25;7.38;;;8.90;72.60;;;;;;4976677;28;20041;-62
2023/03/18 00:30:12;;;;;;;11.82;7.10;;;8.90;72.80;;;;;;4977460;28;20184;-62
2023/03/18 00:32:37;;;;;;;11.82;6.72;;;8.90;72.70;;;;;;4974158;28;20041;-62
2023/03/18 00:35:04;;;;;;;10.10;6.30;;;9.00;72.60;;;;;;4974006;28;20030;-60
2023/03/18 00:37:30;;;;;;;9.90;5.53;;;9.00;72.60;;;;;;4980596;28;20787;-61
2023/03/18 00:40:05;;;;;;;9.57;5.70;;;9.00;72.50;;;;;;4980487;28;20058;-61
2023/03/18 00:42:37;;;;;;;9.93;5.47;;;9.00;72.50;;;;;;4982582;28;20524;-61
2023/03/18 00:45:05;;;;;;;7.40;5.05;;;9.10;72.50;;;;;;4982577;28;20117;-60
2023/03/18 00:47:31;;;;;;;7.30;5.03;;;9.10;72.40;;;;;;4982743;28;20121;-60
2023/03/18 00:49:57;;;;;;;8.27;5.35;;;9.10;72.10;;;;;;4981170;28;20038;-61
2023/03/18 00:52:22;;;;;;;11.80;5.78;;;9.10;72.10;;;;;;4982804;28;20532;-61
2023/03/18 00:54:49;;;;;;;9.32;5.32;;;9.10;72.10;;;;;;4980809;28;20568;-60
2023/03/18 00:57:14;;;;;;;9.13;5.40;;;9.10;72.10;;;;;;4987163;28;20373;-61
2023/03/18 00:59:40;;;;;;;10.80;5.47;;;9.10;72.10;;;;;;4982231;28;20042;-61
2023/03/18 01:02:05;;;;;;;7.38;5.25;;;9.10;72.00;;;;;;4985301;28;20034;-61
2023/03/18 01:04:32;;;;;;;7.82;4.85;;;9.10;72.00;;;;;;4988708;28;20109;-60
2023/03/18 01:06:58;;;;;;;7.68;5.03;;;9.10;72.00;;;;;;4985337;28;20042;-60
2023/03/18 01:09:23;;;;;;;8.55;5.03;;;9.10;71.90;;;;;;4980606;28;20045;-61
2023/03/18 01:11:49;;;;;;;7.68;4.90;;;9.10;71.80;;;;;;4977923;28;20035;-59
2023/03/18 01:14:15;;;;;;;6.90;4.93;;;9.10;71.90;;;;;;4978982;28;20052;-63
2023/03/18 01:16:40;;;;;;;7.85;5.20;;;9.10;71.80;;;;;;4981999;28;20057;-61
2023/03/18 01:19:06;;;;;;;9.75;5.28;;;9.20;71.90;;;;;;4980601;28;20379;-61
2023/03/18 01:21:32;;;;;;;6.90;5.00;;;9.20;71.90;;;;;;4981347;28;20033;-60
2023/03/18 01:23:59;;;;;;;9.05;5.22;;;9.10;71.80;;;;;;4979137;28;20389;-59
2023/03/18 01:26:25;;;;;;;6.80;4.80;;;9.20;71.90;;;;;;4978890;28;20045;-59
2023/03/18 01:28:52;;;;;;;7.07;4.50;;;9.10;71.90;;;;;;4981706;28;20556;-62
2023/03/18 01:31:17;;;;;;;6.80;4.65;;;9.10;71.80;;;;;;4980968;28;20038;-60
2023/03/18 01:33:44;;;;;;;9.77;4.78;;;9.10;71.90;;;;;;4983047;28;20035;-62
2023/03/18 01:36:10;;;;;;;5.65;4.30;;;9.20;71.90;;;;;;4979699;28;20198;-62
2023/03/18 01:38:36;;;;;;;8.77;5.18;;;9.10;71.60;;;;;;4993460;28;20035;-60
2023/03/18 01:41:03;;;;;;;6.32;4.57;;;9.10;71.70;;;;;;4986115;28;20410;-61
2023/03/18 01:43:39;;;;;;;8.02;4.40;;;9.10;71.80;;;;;;4982525;28;20508;-60
2023/03/18 01:46:32;;;;;;;6.05;3.95;;;9.10;71.80;;;;;;4972897;28;20043;-61
2023/03/18 01:48:59;;;;;;;4.70;3.55;;;9.10;71.90;;;;;;4976993;28;20449;-62
2023/03/18 01:51:26;;;;;;;5.50;3.55;;;9.10;71.60;;;;;;4980566;28;20034;-62
2023/03/18 01:53:53;;;;;;;4.90;2.60;;;9.10;71.60;;;;;;4978276;28;20038;-61
2023/03/18 01:56:19;;;;;;;5.25;2.88;;;9.10;71.30;;;;;;4980988;28;20038;-60
2023/03/18 01:58:48;;;;;;;3.33;2.47;;;9.10;71.20;;;;;;4978784;28;20176;-61
2023/03/18 02:02:02;;;;;;;3.92;2.65;;;9.00;71.30;;;;;;4981736;28;20049;-61
2023/03/18 02:04:34;;;;;;;3.47;2.40;;;9.00;71.70;;;;;;4977210;28;20073;-61
2023/03/18 02:07:00;;;;;;;3.42;2.53;;;9.00;71.30;;;;;;4978306;28;20073;-61
2023/03/18 02:09:26;;;;;;;3.90;2.50;;;9.00;71.30;;;;;;4978863;28;20068;-60
2023/03/18 02:11:51;;;;;;;3.53;2.03;;;9.00;71.30;;;;;;4978530;28;20034;-60
2023/03/18 02:14:20;;;;;;;3.50;2.00;;;8.90;71.30;;;;;;4981456;28;20481;-62
2023/03/18 02:17:09;;;;;;;3.45;1.80;;;8.90;71.30;;;;;;4978499;28;20034;-60
2023/03/18 02:20:07;;;;;;;2.50;1.85;;;8.90;71.50;;;;;;4977696;28;20074;-61
2023/03/18 02:22:42;;;;;;;3.55;1.80;;;8.90;71.60;;;;;;4976414;28;20505;-61
2023/03/18 02:25:38;;;;;;;2.08;1.70;;;8.90;71.40;;;;;;4977464;28;20050;-60
2023/03/18 02:28:12;;;;;;;2.00;1.65;;;8.80;71.40;;;;;;4980442;28;20054;-61
2023/03/18 02:30:45;;;;;;;3.00;2.28;;;8.80;71.40;;;;;;4980813;28;20049;-60
2023/03/18 02:33:13;;;;;;;5.47;3.35;;;8.80;71.40;;;;;;4977954;28;20506;-61
2023/03/18 02:35:41;;;;;;;6.03;3.85;;;8.80;71.40;;;;;;4976788;28;20880;-61
2023/03/18 02:38:06;;;;;;;6.68;4.10;;;8.80;71.70;;;;;;4981317;28;20572;-61
2023/03/18 02:40:38;;;;;;;4.60;3.47;;;8.80;71.80;;;;;;4979452;28;20038;-61
2023/03/18 02:43:19;;;;;;;4.35;3.00;;;8.80;72.10;;;;;;4985667;28;22185;-60
2023/03/18 02:45:56;;;;;;;3.05;2.20;;;8.80;72.50;;;;;;4980209;28;20046;-62
2023/03/18 02:48:24;;;;;;;2.20;1.70;;;8.70;71.80;;;;;;4978971;28;20053;-60
2023/03/18 02:50:51;;;;;;;3.63;2.00;;;8.70;72.00;;;;;;4980301;28;20034;-61
2023/03/18 02:53:16;;;;;;;3.63;1.95;;;8.70;71.90;;;;;;4979403;28;20572;-61
2023/03/18 02:55:42;;;;;;;2.83;1.70;;;8.70;71.80;;;;;;4983042;28;20038;-61
2023/03/18 02:58:08;;;;;;;2.10;1.90;;;8.70;71.80;;;;;;4986442;28;20124;-59
2023/03/18 03:00:34;;;;;;;5.95;2.88;;;8.80;72.00;;;;;;4980935;28;20121;-60
2023/03/18 03:03:02;;;;;;;3.00;2.55;;;8.80;72.10;;;;;;4984358;28;20046;-61
2023/03/18 03:05:28;;;;;;;3.45;2.53;;;8.80;72.10;;;;;;4984975;28;20035;-60
2023/03/18 03:07:53;;;;;;;3.95;2.33;;;8.80;72.00;;;;;;4981566;28;20405;-61
2023/03/18 03:10:19;;;;;;;4.10;2.47;;;8.80;71.90;;;;;;4978418;28;20479;-60
2023/03/18 03:12:46;;;;;;;4.38;2.10;;;8.90;72.00;;;;;;4971920;28;20037;-62
2023/03/18 03:15:12;;;;;;;5.40;2.00;;;8.90;71.70;;;;;;4978902;28;20169;-62
2023/03/18 03:17:38;;;;;;;3.53;1.63;;;8.90;71.60;;;;;;4979560;28;20152;-60
2023/03/18 03:20:05;;;;;;;4.47;1.90;;;8.90;71.40;;;;;;4979327;28;20061;-61
2023/03/18 03:22:33;;;;;;;3.40;1.75;;;8.90;71.10;;;;;;4981508;28;20088;-60
2023/03/18 03:25:00;;;;;;;2.75;1.58;;;9.00;71.00;;;;;;4978277;28;20031;-61
2023/03/18 03:27:26;;;;;;;2.13;1.48;;;9.00;71.00;;;;;;4976504;28;20041;-61
2023/03/18 03:29:51;;;;;;;2.40;1.60;;;9.00;70.90;;;;;;4981226;28;20045;-59
2023/03/18 03:32:17;;;;;;;4.28;1.52;;;9.00;71.60;;;;;;4978984;28;20417;-60
2023/03/18 03:34:43;;;;;;;3.63;1.50;;;9.00;70.70;;;;;;4979937;28;20035;-60
2023/03/18 03:37:08;;;;;;;3.42;1.42;;;9.00;70.60;;;;;;4979460;28;20038;-61
2023/03/18 03:39:34;;;;;;;1.90;1.50;;;9.00;70.60;;;;;;4979343;28;20501;-61
2023/03/18 03:41:59;;;;;;;3.17;1.55;;;9.00;70.60;;;;;;4979367;28;20047;-61
2023/03/18 03:44:25;;;;;;;2.55;1.63;;;9.00;70.60;;;;;;4980867;28;20049;-60
2023/03/18 03:46:51;;;;;;;3.50;1.65;;;9.00;70.60;;;;;;4980444;28;20050;-61
2023/03/18 03:49:17;;;;;;;4.05;2.10;;;9.00;70.60;;;;;;4981887;28;20485;-60
2023/03/18 03:51:43;;;;;;;2.92;2.10;;;9.00;70.50;;;;;;4982420;28;20524;-62
2023/03/18 03:54:12;;;;;;;2.15;1.80;;;9.00;70.50;;;;;;4979326;28;20470;-61
2023/03/18 03:56:38;;;;;;;3.58;1.95;;;9.00;70.60;;;;;;4977094;28;20529;-61
2023/03/18 03:59:03;;;;;;;3.05;2.08;;;8.90;71.30;;;;;;4978463;28;20038;-61
2023/03/18 04:01:29;;;;;;;2.55;2.22;;;8.90;70.50;;;;;;4978902;28;20037;-61
2023/03/18 04:03:55;;;;;;;3.97;2.17;;;8.90;70.50;;;;;;4980147;28;20038;-61
2023/03/18 04:06:21;;;;;;;4.47;2.38;;;8.90;70.50;;;;;;4978738;28;20465;-62
2023/03/18 04:08:46;;;;;;;4.38;2.20;;;9.00;70.60;;;;;;4980193;28;20062;-62
2023/03/18 04:11:12;;;;;;;3.33;2.78;;;9.00;70.60;;;;;;4979932;28;20113;-61
2023/03/18 04:13:38;;;;;;;4.25;2.30;;;9.00;70.50;;;;;;4979280;28;20371;-61
2023/03/18 04:16:04;;;;;;;3.53;2.38;;;9.00;70.40;;;;;;4979966;28;20069;-58
2023/03/18 04:18:29;;;;;;;5.10;2.30;;;9.00;70.40;;;;;;4983744;28;20540;-60
2023/03/18 04:20:55;;;;;;;3.47;2.70;;;9.00;70.40;;;;;;4986545;28;20137;-60
2023/03/18 04:23:21;;;;;;;3.22;2.53;;;9.00;70.40;;;;;;4984514;28;20383;-61
2023/03/18 04:25:46;;;;;;;7.32;3.20;;;9.00;70.40;;;;;;4977691;28;20045;-61
2023/03/18 04:28:13;;;;;;;6.25;3.30;;;9.00;70.40;;;;;;4979197;28;20034;-61
2023/03/18 04:30:38;;;;;;;7.63;3.72;;;9.00;70.20;;;;;;4996789;28;20054;-61
2023/03/18 04:33:04;;;;;;;5.78;3.70;;;8.90;70.20;;;;;;4984967;28;20181;-61
2023/03/18 04:35:30;;;;;;;4.55;3.53;;;8.90;70.20;;;;;;4985204;28;20058;-58
2023/03/18 04:37:56;;;;;;;8.07;4.05;;;8.90;70.40;;;;;;4985292;28;20030;-58
2023/03/18 04:40:21;;;;;;;4.35;3.30;;;8.90;70.60;;;;;;4978218;28;20157;-61
2023/03/18 04:42:47;;;;;;;4.80;3.40;;;8.90;70.70;;;;;;4978663;28;20101;-60
2023/03/18 04:45:15;;;;;;;5.78;3.28;;;8.80;70.70;;;;;;4975401;28;20030;-62
2023/03/18 04:47:41;;;;;;;4.78;3.67;;;8.80;70.70;;;;;;4982866;28;20133;-60
2023/03/18 04:50:10;;;;;;;5.97;3.72;;;8.80;70.60;;;;;;4982557;28;20049;-60
2023/03/18 04:52:37;;;;;;;8.20;4.70;;;8.80;70.60;;;;;;4978541;28;20035;-61
2023/03/18 04:55:03;;;;;;;8.23;4.55;;;8.80;70.70;;;;;;4983211;28;20509;-60
2023/03/18 04:57:30;;;;;;;6.60;4.57;;;8.80;70.70;;;;;;4988261;28;20041;-60
2023/03/18 04:59:56;;;;;;;6.22;4.50;;;8.80;70.70;;;;;;4988529;28;20038;-59
2023/03/18 05:02:21;;;;;;;7.35;5.25;;;8.70;71.60;;;;;;4988606;28;21870;-60
2023/03/18 05:04:47;;;;;;;6.95;4.97;;;8.70;70.90;;;;;;4985535;28;20438;-61
2023/03/18 05:07:14;;;;;;;9.85;5.80;;;8.70;70.90;;;;;;4983547;28;20088;-61
2023/03/18 05:09:40;;;;;;;30.38;12.82;;;8.70;71.00;;;;;;4985016;28;20789;-60
2023/03/18 05:12:10;;;;;;;21.27;10.40;;;8.70;71.10;;;;;;4981311;28;20030;-59
2023/03/18 05:14:36;;;;;;;30.63;15.13;;;8.70;71.10;;;;;;4984797;28;20030;-60
2023/03/18 05:17:03;;;;;;;20.98;11.45;;;8.70;71.10;;;;;;4982918;28;20052;-62
2023/03/18 05:19:28;;;;;;;16.20;9.63;;;8.70;71.10;;;;;;4983291;28;20034;-61
2023/03/18 05:21:54;;;;;;;14.23;8.48;;;8.70;71.10;;;;;;4982525;28;20039;-62
2023/03/18 05:24:20;;;;;;;13.63;7.95;;;8.70;71.20;;;;;;4980414;28;20417;-61
2023/03/18 05:26:47;;;;;;;10.90;6.30;;;8.70;71.10;;;;;;4974222;28;20069;-62
2023/03/18 05:29:12;;;;;;;8.93;6.35;;;8.70;71.20;;;;;;4982971;28;20029;-60
2023/03/18 05:31:38;;;;;;;10.13;6.55;;;8.70;71.20;;;;;;4981514;28;20035;-60
2023/03/18 05:34:06;;;;;;;8.98;6.07;;;8.70;71.30;;;;;;4983845;28;20097;-61
2023/03/18 05:36:32;;;;;;;10.05;6.78;;;8.60;71.20;;;;;;4983001;28;20038;-59
2023/03/18 05:38:57;;;;;;;10.90;6.40;;;8.60;71.20;;;;;;4984481;28;20030;-61
2023/03/18 05:41:23;;;;;;;11.98;7.05;;;8.60;71.20;;;;;;4982577;28;20195;-61
2023/03/18 05:43:49;;;;;;;13.15;7.05;;;8.60;71.40;;;;;;4982310;28;20084;-62
2023/03/18 05:46:15;;;;;;;15.43;8.48;;;8.50;71.50;;;;;;4978242;28;20038;-61
2023/03/18 05:48:42;;;;;;;13.20;7.80;;;8.50;71.60;;;;;;4980532;28;20060;-60
2023/03/18 05:51:07;;;;;;;11.65;7.45;;;8.50;71.70;;;;;;4985023;28;20695;-60
2023/03/18 05:53:33;;;;;;;11.65;7.65;;;8.40;71.60;;;;;;4979674;28;20031;-59
2023/03/18 05:55:59;;;;;;;11.48;6.38;;;8.50;71.80;;;;;;4982992;28;20521;-61
2023/03/18 05:58:29;;;;;;;9.77;6.60;;;8.40;71.90;;;;;;4978145;28;20061;-62
2023/03/18 06:00:57;;;;;;;8.90;6.00;;;8.40;72.00;;;;;;4982744;28;20120;-60
2023/03/18 06:03:23;;;;;;;9.35;5.78;;;8.30;72.00;;;;;;4978861;28;20636;-60
2023/03/18 06:05:49;;;;;;;7.95;5.63;;;8.30;72.10;;;;;;4982342;28;20409;-60
2023/03/18 06:08:16;;;;;;;8.80;5.32;;;8.30;72.20;;;;;;4984152;28;20034;-59
2023/03/18 06:10:42;;;;;;;8.73;5.20;;;8.30;72.30;;;;;;4980301;28;20035;-59
2023/03/18 06:13:10;;;;;;;8.25;5.53;;;8.20;72.40;;;;;;4976291;28;20037;-61
2023/03/18 06:15:36;;;;;;;7.65;5.78;;;8.20;72.60;;;;;;4982000;28;20402;-61
2023/03/18 06:18:03;;;;;;;12.32;5.43;;;8.20;72.70;;;;;;4981768;28;20041;-57
2023/03/18 06:20:29;;;;;;;7.88;5.50;;;8.10;72.80;;;;;;4984142;28;20633;-60
2023/03/18 06:22:55;;;;;;;8.70;5.68;;;8.10;73.00;;;;;;4980697;28;20045;-61
2023/03/18 06:25:21;;;;;;;7.88;5.50;;;8.10;73.20;;;;;;4982521;28;20066;-61
2023/03/18 06:27:47;;;;;;;9.98;5.30;;;8.10;73.50;;;;;;4975732;28;20129;-62
2023/03/18 06:30:14;;;;;;;8.52;5.05;;;8.10;73.70;;;;;;4977989;28;20061;-61
2023/03/18 06:32:40;;;;;;;8.45;5.38;;;8.10;73.60;;;;;;4978195;28;20042;-62
2023/03/18 06:35:06;;;;;;;5.50;4.38;;;8.20;73.70;;;;;;4981875;28;20049;-61
2023/03/18 06:37:32;;;;;;;7.88;4.60;;;8.20;73.90;;;;;;4982671;28;20383;-61
2023/03/18 06:39:59;;;;;;;6.13;3.88;;;8.20;74.00;;;;;;4981718;28;20034;-59
2023/03/18 06:42:24;;;;;;;6.57;4.63;;;8.20;74.00;;;;;;4983613;28;20073;-60
2023/03/18 06:44:50;;;;;;;8.25;4.47;;;8.20;74.20;;;;;;4980778;28;20648;-59
2023/03/18 06:47:17;;;;;;;6.00;4.25;;;8.30;74.40;;;;;;4980904;28;20394;-61
2023/03/18 06:49:43;;;;;;;8.65;4.40;;;8.30;74.20;;;;;;4980758;28;20454;-59
2023/03/18 06:52:09;;;;;;;6.30;4.30;;;8.30;74.20;;;;;;4980844;28;20042;-61
2023/03/18 06:54:34;;;;;;;7.70;4.97;;;8.30;74.20;;;;;;4983424;28;20038;-61
2023/03/18 06:57:00;;;;;;;6.75;4.90;;;8.40;74.30;;;;;;4979639;28;20117;-61
2023/03/18 06:59:26;;;;;;;7.05;4.93;;;8.40;74.40;;;;;;4984814;28;20037;-61
2023/03/18 07:01:52;;;;;;;9.88;5.38;;;8.40;74.30;;;;;;4982278;28;20118;-60
2023/03/18 07:04:17;;;;;;;8.52;5.40;;;8.40;74.20;;;;;;4984075;28;20065;-62
2023/03/18 07:06:43;;;;;;;6.18;4.60;;;8.40;74.40;;;;;;4982254;28;20529;-61
2023/03/18 07:09:11;;;;;;;8.23;4.68;;;8.40;74.50;;;;;;4982573;28;20562;-59
2023/03/18 07:11:36;;;;;;;7.35;5.10;;;8.50;74.60;;;;;;4977353;28;20034;-59
2023/03/18 07:14:02;;;;;;;8.13;5.20;;;8.50;74.60;;;;;;4981261;28;20063;-61
2023/03/18 07:16:29;;;;;;;8.82;4.63;;;8.60;74.70;;;;;;4979214;28;20046;-62
2023/03/18 07:18:57;;;;;;;7.50;4.53;;;8.60;74.90;;;;;;4981559;28;20038;-61
2023/03/18 07:21:23;;;;;;;6.72;4.15;;;8.70;74.90;;;;;;4973780;28;20041;-62
2023/03/18 07:23:50;;;;;;;8.18;4.13;;;8.70;74.90;;;;;;4980554;28;20042;-61
2023/03/18 07:26:16;;;;;;;7.30;4.10;;;8.80;74.80;;;;;;4977308;28;20039;-62
2023/03/18 07:28:42;;;;;;;8.80;4.30;;;8.90;74.70;;;;;;4981694;28;20576;-62
2023/03/18 07:31:08;;;;;;;6.68;3.95;;;9.00;74.70;;;;;;4978517;28;20057;-61
2023/03/18 07:33:34;;;;;;;10.45;4.78;;;9.00;74.70;;;;;;4982280;28;20137;-59
2023/03/18 07:35:59;;;;;;;7.38;4.43;;;9.10;74.40;;;;;;4981744;28;20518;-62
2023/03/18 07:38:25;;;;;;;7.35;4.78;;;9.20;74.30;;;;;;4978479;28;20041;-61
2023/03/18 07:40:51;;;;;;;7.65;5.07;;;9.30;74.40;;;;;;4977912;28;20042;-61
2023/03/18 07:43:16;;;;;;;12.55;5.53;;;9.30;74.20;;;;;;4980274;28;20030;-61
2023/03/18 07:45:42;;;;;;;9.88;5.40;;;9.40;74.10;;;;;;4981742;28;20054;-62
2023/03/18 07:48:08;;;;;;;13.18;6.22;;;9.50;74.00;;;;;;4977720;28;20038;-63
2023/03/18 07:50:34;;;;;;;10.02;5.93;;;9.60;73.90;;;;;;4982627;28;20042;-61
2023/03/18 07:52:59;;;;;;;7.45;5.72;;;9.70;73.70;;;;;;4983084;28;20044;-60
2023/03/18 07:55:25;;;;;;;9.25;5.80;;;9.80;73.50;;;;;;4982954;28;20566;-59
2023/03/18 07:57:50;;;;;;;9.70;6.07;;;9.80;73.50;;;;;;4982881;28;20270;-59
2023/03/18 08:00:17;;;;;;;15.90;6.88;;;9.90;73.70;;;;;;4985362;28;20113;-61
2023/03/18 08:02:42;;;;;;;12.80;6.22;;;10.00;73.50;;;;;;4979127;28;20030;-62
2023/03/18 08:05:09;;;;;;;10.00;6.82;;;10.10;73.30;;;;;;4983051;28;20096;-60
2023/03/18 08:07:35;;;;;;;12.20;6.82;;;10.20;73.20;;;;;;4980356;28;20429;-57
2023/03/18 08:10:01;;;;;;;11.68;7.53;;;10.20;73.00;;;;;;4982858;28;20476;-62
2023/03/18 08:12:27;;;;;;;11.02;7.47;;;10.30;72.90;;;;;;4966357;28;20038;-62
2023/03/18 08:14:53;;;;;;;14.05;6.80;;;10.40;72.80;;;;;;4967664;28;20046;-60
2023/03/18 08:17:18;;;;;;;10.50;7.28;;;10.40;72.70;;;;;;4972166;28;20044;-60
2023/03/18 08:19:44;;;;;;;9.55;6.60;;;10.60;72.80;;;;;;4973733;28;20686;-62
2023/03/18 08:22:10;;;;;;;12.85;7.18;;;10.60;72.50;;;;;;4971344;28;20169;-62
2023/03/18 08:24:37;;;;;;;12.35;7.03;;;10.70;72.40;;;;;;4978398;28;20133;-62
2023/03/18 08:27:03;;;;;;;9.20;6.70;;;10.80;72.20;;;;;;4981645;28;20038;-60
2023/03/18 08:29:29;;;;;;;13.43;7.45;;;10.90;72.10;;;;;;4983866;28;20069;-61
2023/03/18 08:31:56;;;;;;;8.85;6.75;;;11.00;72.00;;;;;;4975702;28;20054;-60
2023/03/18 08:34:22;;;;;;;11.25;6.90;;;11.00;71.90;;;;;;4980485;28;20533;-61
2023/03/18 08:36:48;;;;;;;11.07;7.25;;;11.20;71.80;;;;;;4978370;28;20121;-62
2023/03/18 08:39:14;;;;;;;9.85;6.85;;;11.20;71.50;;;;;;4976549;28;20125;-60
2023/03/18 08:41:40;;;;;;;14.10;6.75;;;11.40;71.50;;;;;;4978310;28;20042;-63
2023/03/18 08:44:08;;;;;;;11.70;6.88;;;11.50;71.40;;;;;;4975959;28;20502;-62
2023/03/18 08:46:34;;;;;;;10.48;7.13;;;11.60;71.20;;;;;;4973885;28;20306;-60
2023/03/18 08:49:00;;;;;;;10.00;6.93;;;11.70;71.00;;;;;;4984855;28;20054;-60
2023/03/18 08:51:27;;;;;;;11.35;7.75;;;11.80;70.80;;;;;;4977537;28;20034;-62
2023/03/18 08:53:54;;;;;;;9.82;7.00;;;11.90;70.80;;;;;;4976847;28;20038;-62
2023/03/18 08:56:19;;;;;;;10.65;6.68;;;12.00;70.50;;;;;;4982158;28;20062;-60
2023/03/18 08:58:47;;;;;;;10.35;7.13;;;12.10;70.40;;;;;;4986847;28;20120;-62
2023/03/18 09:01:13;;;;;;;8.13;5.88;;;12.20;70.30;;;;;;4984618;28;20041;-61
2023/03/18 09:03:39;;;;;;;8.60;6.28;;;12.30;69.90;;;;;;4976901;28;20026;-61
2023/03/18 09:06:05;;;;;;;11.63;6.43;;;12.40;69.90;;;;;;4974360;28;20038;-62
2023/03/18 09:08:31;;;;;;;9.80;6.60;;;12.50;69.90;;;;;;4976431;28;20391;-62
2023/03/18 09:10:57;;;;;;;9.95;6.88;;;12.70;69.70;;;;;;4972435;28;20725;-61
2023/03/18 09:13:23;;;;;;;8.35;5.68;;;12.70;69.30;;;;;;4969645;28;20054;-61
2023/03/18 09:15:49;;;;;;;8.18;6.40;;;12.90;69.30;;;;;;4984899;28;20031;-62
2023/03/18 09:18:17;;;;;;;9.68;6.20;;;13.00;68.70;;;;;;4980223;28;20096;-61
2023/03/18 09:20:44;;;;;;;8.65;5.72;;;13.10;68.10;;;;;;4976804;28;20145;-63
2023/03/18 09:23:11;;;;;;;8.68;5.60;;;13.20;67.70;;;;;;4981190;28;20118;-62
2023/03/18 09:25:37;;;;;;;5.65;4.43;;;13.40;67.60;;;;;;4975815;28;20607;-62
2023/03/18 09:28:03;;;;;;;7.03;4.78;;;13.50;67.30;;;;;;4983764;28;20042;-61
2023/03/18 09:30:29;;;;;;;7.55;4.93;;;13.60;66.60;;;;;;4978441;28;20634;-62
2023/03/18 09:32:55;;;;;;;8.43;4.55;;;13.70;66.20;;;;;;4981124;28;20054;-60
2023/03/18 09:35:21;;;;;;;7.43;4.68;;;13.80;65.90;;;;;;4981123;28;20503;-60
2023/03/18 09:37:47;;;;;;;6.75;3.72;;;13.80;65.70;;;;;;4970984;28;20613;-62
2023/03/18 09:40:26;;;;;;;3.95;2.20;;;13.90;64.50;;;;;;4972747;28;20057;-63
2023/03/18 09:43:01;;;;;;;3.05;1.90;;;14.10;61.40;;;;;;4972207;28;20038;-62
2023/03/18 09:45:55;;;;;;;6.28;2.92;;;14.20;59.80;;;;;;4975961;28;20031;-62
2023/03/18 09:48:42;;;;;;;3.65;2.10;;;14.20;59.50;;;;;;4979404;28;20050;-62
2023/03/18 09:51:36;;;;;;;3.88;1.90;;;14.40;59.20;;;;;;4968766;28;20087;-61
2023/03/18 09:54:07;;;;;;;3.03;1.58;;;14.50;58.60;;;;;;4979130;28;20502;-61
2023/03/18 09:56:35;;;;;;;5.18;2.33;;;14.60;59.40;;;;;;4968825;28;20041;-63
2023/03/18 09:59:23;;;;;;;3.33;2.28;;;14.60;58.80;;;;;;4980006;28;20080;-63
2023/03/18 10:01:53;;;;;;;2.20;1.50;;;14.70;57.00;;;;;;4982437;28;20042;-62
2023/03/18 10:04:32;;;;;;;2.38;1.40;;;14.80;56.00;;;;;;4982313;28;20034;-63
2023/03/18 10:07:04;;;;;;;0.93;0.80;;;14.90;56.50;;;;;;4979060;28;20046;-61
2023/03/18 10:09:38;;;;;;;2.50;0.80;;;15.00;54.80;;;;;;4979111;28;20039;-62
2023/03/18 10:12:17;;;;;;;2.17;0.88;;;15.20;53.60;;;;;;4968222;28;20034;-61
2023/03/18 10:14:58;;;;;;;4.13;1.35;;;15.40;52.50;;;;;;4974697;28;20041;-61
2023/03/18 10:17:36;;;;;;;2.00;1.15;;;15.40;52.10;;;;;;4975470;28;20041;-62
2023/03/18 10:20:12;;;;;;;2.17;1.35;;;15.60;52.60;;;;;;4968273;28;20038;-62
2023/03/18 10:23:04;;;;;;;1.75;1.13;;;15.70;52.80;;;;;;4979475;28;20087;-62
2023/03/18 10:25:38;;;;;;;2.10;1.00;;;15.80;51.70;;;;;;4979494;28;20042;-62
2023/03/18 10:28:14;;;;;;;3.30;1.10;;;15.80;50.90;;;;;;4977534;28;20031;-62
2023/03/18 10:30:42;;;;;;;1.75;1.00;;;15.90;51.00;;;;;;4975269;28;20050;-62
2023/03/18 10:33:46;;;;;;;1.48;0.90;;;16.00;52.00;;;;;;4983435;28;20133;-61
2023/03/18 10:36:41;;;;;;;3.65;1.23;;;16.00;48.80;;;;;;4976539;28;20046;-61
2023/03/18 10:39:15;;;;;;;2.60;1.20;;;16.10;50.00;;;;;;4959309;28;20042;-61
2023/03/18 10:41:42;;;;;;;3.35;1.10;;;16.10;50.40;;;;;;4977423;28;20122;-63
2023/03/18 10:44:31;;;;;;;3.65;1.98;;;16.20;51.10;;;;;;4982958;28;20026;-62
2023/03/18 10:46:58;;;;;;;5.13;1.85;;;16.20;50.70;;;;;;4974814;28;20046;-61
2023/03/18 10:49:29;;;;;;;2.53;2.00;;;16.30;52.00;;;;;;4979706;28;20629;-62
2023/03/18 10:52:12;;;;;;;3.63;1.48;;;16.30;52.20;;;;;;4980867;28;20049;-60
2023/03/18 10:54:51;;;;;;;2.50;1.50;;;16.40;51.90;;;;;;4975559;28;20037;-62
2023/03/18 10:57:18;;;;;;;2.80;1.55;;;16.40;52.80;;;;;;4971617;28;20161;-60
2023/03/18 10:59:44;;;;;;;2.90;2.00;;;16.40;52.80;;;;;;4983511;28;20038;-61
2023/03/18 11:02:28;;;;;;;3.47;1.83;;;16.50;52.80;;;;;;4987151;28;20046;-62
2023/03/18 11:05:22;;;;;;;2.17;1.52;;;16.60;52.00;;;;;;4987649;28;20473;-62
2023/03/18 11:07:55;;;;;;;1.60;1.45;;;16.70;52.50;;;;;;4955561;28;20030;-62
2023/03/18 11:10:27;;;;;;;6.07;1.50;;;16.80;52.00;;;;;;4985402;28;20061;-63
2023/03/18 11:13:01;;;;;;;3.17;1.70;;;16.90;51.20;;;;;;4982542;28;20030;-62
2023/03/18 11:15:28;;;;;;;2.45;1.23;;;16.90;51.00;;;;;;4986426;28;20066;-63
2023/03/18 11:18:01;;;;;;;2.67;1.80;;;17.00;52.30;;;;;;4985851;28;20081;-62
2023/03/18 11:20:43;;;;;;;3.22;2.03;;;17.10;51.40;;;;;;4983298;28;20122;-62
2023/03/18 11:26:23;;;;;;;2.45;1.83;;;17.10;51.10;;;;;;4983687;28;20041;-61
2023/03/18 11:28:55;;;;;;;7.82;1.83;;;17.20;51.50;;;;;;4984198;28;20521;-60
2023/03/18 11:31:21;;;;;;;3.20;2.35;;;17.30;51.80;;;;;;4986117;28;20588;-62
2023/03/18 11:33:46;;;;;;;3.15;2.03;;;17.30;52.20;;;;;;4984908;28;20041;-62
2023/03/18 11:36:22;;;;;;;3.53;2.00;;;17.40;52.40;;;;;;4984784;28;20034;-62
2023/03/18 11:39:02;;;;;;;3.65;2.20;;;17.50;51.70;;;;;;4985168;28;20066;-62
2023/03/18 11:41:31;;;;;;;3.83;2.22;;;17.60;51.00;;;;;;4983420;28;20502;-60
2023/03/18 11:44:16;;;;;;;4.22;2.30;;;17.60;51.90;;;;;;4983881;28;20046;-62
2023/03/18 11:46:57;;;;;;;4.32;2.55;;;17.70;51.20;;;;;;4978833;28;20129;-62
2023/03/18 11:49:26;;;;;;;3.38;2.40;;;17.80;51.10;;;;;;4983802;28;20031;-60
2023/03/18 11:52:00;;;;;;;4.15;2.70;;;17.80;51.90;;;;;;4981620;28;20116;-62
2023/03/18 11:54:47;;;;;;;4.53;2.65;;;17.90;52.00;;;;;;4985350;28;20031;-61
2023/03/18 11:57:32;;;;;;;4.55;2.97;;;18.00;51.10;;;;;;4983139;28;20031;-62
2023/03/18 12:00:16;;;;;;;4.33;2.73;;;18.10;51.90;;;;;;4984104;28;20482;-62
2023/03/18 12:03:03;;;;;;;4.30;2.85;;;18.20;50.50;;;;;;4982917;28;20038;-62
2023/03/18 12:05:34;;;;;;;4.70;2.78;;;18.30;50.50;;;;;;4986190;28;20153;-61
2023/03/18 12:08:32;;;;;;;3.28;2.20;;;18.30;51.50;;;;;;4983653;28;20035;-61
2023/03/18 12:11:23;;;;;;;5.28;2.60;;;18.30;50.50;;;;;;4981710;28;20042;-62
2023/03/18 12:14:04;;;;;;;4.05;2.70;;;18.40;50.60;;;;;;4980715;28;20097;-62
2023/03/18 12:16:45;;;;;;;8.75;2.92;;;18.40;50.50;;;;;;4984572;28;20030;-61
2023/03/18 12:19:38;;;;;;;5.47;2.55;;;18.50;50.00;;;;;;4986018;28;20073;-62
2023/03/18 12:22:22;;;;;;;4.88;3.00;;;18.50;50.30;;;;;;4985414;28;20038;-62
2023/03/18 12:25:29;;;;;;;3.53;2.70;;;18.50;49.80;;;;;;4981350;28;20038;-63
2023/03/18 12:28:16;;;;;;;4.50;2.95;;;18.50;50.00;;;;;;4983759;28;20054;-62
2023/03/18 12:30:45;;;;;;;4.18;2.70;;;18.60;49.60;;;;;;4982094;28;20093;-62
2023/03/18 12:33:25;;;;;;;4.55;2.80;;;18.60;50.80;;;;;;4981918;28;20039;-59
2023/03/18 12:35:57;;;;;;;4.95;2.88;;;18.60;50.60;;;;;;4981954;28;20042;-60
2023/03/18 12:38:38;;;;;;;3.78;2.60;;;18.60;51.00;;;;;;4988798;28;20030;-61
2023/03/18 12:41:35;;;;;;;4.82;2.90;;;18.70;50.70;;;;;;4983767;28;20050;-62
2023/03/18 12:44:30;;;;;;;5.70;2.67;;;18.70;50.50;;;;;;4933907;28;20047;-61
2023/03/18 12:47:15;;;;;;;3.60;2.53;;;18.80;49.90;;;;;;4985281;28;20043;-62
2023/03/18 12:49:48;;;;;;;5.22;2.80;;;18.90;49.90;;;;;;4984314;28;20113;-62
2023/03/18 12:52:20;;;;;;;3.13;2.42;;;18.90;49.50;;;;;;4982147;28;20034;-62
2023/03/18 12:55:00;;;;;;;4.75;2.72;;;19.00;49.60;;;;;;4984899;28;20038;-62
2023/03/18 12:57:37;;;;;;;3.88;2.75;;;19.00;49.50;;;;;;4984115;28;20506;-61
2023/03/18 13:00:17;;;;;;;5.43;3.10;;;19.00;48.00;;;;;;4986561;28;20112;-61
2023/03/18 13:02:56;;;;;;;3.83;2.60;;;19.00;48.30;;;;;;4988309;28;20453;-61
2023/03/18 13:06:00;;;;;;;2.92;2.38;;;19.00;48.60;;;;;;4986718;28;20065;-62
2023/03/18 13:08:44;;;;;;;6.93;3.00;;;19.10;47.90;;;;;;4978628;28;20133;-62